createdAt,value
2022-10-31T00:02:19.833Z,84
2022-10-31T00:04:50.596Z,84
2022-10-31T00:07:21.507Z,86
2022-10-31T00:09:52.219Z,76
2022-10-31T00:12:22.974Z,73
2022-10-31T00:14:53.742Z,76
2022-10-31T00:17:24.365Z,75
2022-10-31T00:19:55.153Z,76
2022-10-31T00:22:26.651Z,73
2022-10-31T00:24:58.021Z,75
2022-10-31T00:27:28.573Z,76
2022-10-31T00:29:59.185Z,72
2022-10-31T00:32:29.431Z,68
2022-10-31T00:35:00.172Z,64
2022-10-31T00:37:30.801Z,63
2022-10-31T00:40:01.836Z,60
2022-10-31T00:42:32.583Z,64
2022-10-31T00:45:03.162Z,65
2022-10-31T00:47:34.409Z,58
2022-10-31T00:50:05.389Z,67
2022-10-31T00:52:36.441Z,64
2022-10-31T00:55:07.037Z,65
2022-10-31T00:57:37.971Z,65
2022-10-31T01:00:08.741Z,60
2022-10-31T01:02:39.460Z,69
2022-10-31T01:05:10.130Z,64
2022-10-31T01:07:41.309Z,68
2022-10-31T01:10:12.840Z,64
2022-10-31T01:12:43.756Z,64
2022-10-31T01:15:15.206Z,69
2022-10-31T01:17:45.779Z,66
2022-10-31T01:20:17.148Z,68
2022-10-31T01:22:47.913Z,69
2022-10-31T01:25:18.639Z,68
2022-10-31T01:27:49.318Z,64
2022-10-31T01:30:20.277Z,64
2022-10-31T01:32:51.312Z,64
2022-10-31T01:35:23.763Z,60
2022-10-31T01:37:54.485Z,64
2022-10-31T01:40:25.228Z,60
2022-10-31T01:42:56.290Z,64
2022-10-31T01:45:27.182Z,69
2022-10-31T01:47:58.097Z,68
2022-10-31T01:50:28.766Z,69
2022-10-31T01:53:00.535Z,67
2022-10-31T01:55:31.384Z,68
2022-10-31T01:58:02.167Z,65
2022-10-31T02:00:33.140Z,64
2022-10-31T02:03:04.500Z,67
2022-10-31T02:05:33.512Z,68
2022-10-31T02:08:04.904Z,65
2022-10-31T02:10:35.897Z,64
2022-10-31T02:13:06.392Z,66
2022-10-31T02:15:36.852Z,68
2022-10-31T02:18:07.387Z,64
2022-10-31T02:20:38.060Z,66
2022-10-31T02:23:09.761Z,60
2022-10-31T02:25:41.300Z,66
2022-10-31T02:28:12.873Z,68
2022-10-31T02:30:44.593Z,68
2022-10-31T02:33:15.522Z,64
2022-10-31T02:35:47.254Z,63
2022-10-31T02:38:18.773Z,66
2022-10-31T02:40:49.401Z,64
2022-10-31T02:43:21.060Z,67
2022-10-31T02:45:52.189Z,64
2022-10-31T02:48:22.479Z,63
2022-10-31T02:50:55.749Z,60
2022-10-31T02:53:26.582Z,58
2022-10-31T02:55:57.784Z,62
2022-10-31T02:58:28.783Z,56
2022-10-31T03:00:59.803Z,56
2022-10-31T03:03:31.413Z,64
2022-10-31T03:06:03.263Z,60
2022-10-31T03:08:34.040Z,56
2022-10-31T03:11:04.608Z,56
2022-10-31T03:13:35.232Z,54
2022-10-31T03:16:06.126Z,60
2022-10-31T03:18:37.155Z,54
2022-10-31T03:21:08.742Z,60
2022-10-31T03:23:40.005Z,53
2022-10-31T03:26:10.720Z,60
2022-10-31T03:28:43.010Z,56
2022-10-31T03:31:14.113Z,56
2022-10-31T03:33:45.197Z,55
2022-10-31T03:36:16.310Z,54
2022-10-31T03:38:47.360Z,52
2022-10-31T03:41:18.179Z,58
2022-10-31T03:43:48.743Z,52
2022-10-31T03:46:20.360Z,55
2022-10-31T03:48:51.098Z,55
2022-10-31T03:51:22.192Z,53
2022-10-31T03:53:53.238Z,52
2022-10-31T03:56:23.759Z,53
2022-10-31T03:58:54.655Z,55
2022-10-31T04:01:25.183Z,52
2022-10-31T04:03:55.751Z,55
2022-10-31T04:06:26.959Z,56
2022-10-31T04:08:57.912Z,52
2022-10-31T04:11:29.162Z,59
2022-10-31T04:13:59.641Z,52
2022-10-31T04:16:30.669Z,56
2022-10-31T04:19:02.303Z,52
2022-10-31T04:21:33.093Z,56
2022-10-31T04:24:03.850Z,53
2022-10-31T04:26:34.609Z,52
2022-10-31T04:29:05.399Z,56
2022-10-31T04:31:36.767Z,55
2022-10-31T04:34:07.949Z,52
2022-10-31T04:36:41.650Z,56
2022-10-31T04:39:12.994Z,53
2022-10-31T04:41:43.951Z,52
2022-10-31T04:44:14.209Z,55
2022-10-31T04:46:45.470Z,53
2022-10-31T04:49:16.637Z,55
2022-10-31T04:51:47.838Z,50
2022-10-31T04:54:18.735Z,53
2022-10-31T04:56:49.263Z,56
2022-10-31T04:59:20.546Z,56
2022-10-31T05:01:51.832Z,57
2022-10-31T05:04:22.367Z,52
2022-10-31T05:06:53.179Z,55
2022-10-31T05:09:23.948Z,52
2022-10-31T05:11:54.566Z,56
2022-10-31T05:14:25.664Z,52
2022-10-31T05:16:56.054Z,53
2022-10-31T05:19:27.207Z,56
2022-10-31T05:21:58.258Z,53
2022-10-31T05:24:29.772Z,50
2022-10-31T05:27:00.785Z,56
2022-10-31T05:29:31.212Z,56
2022-10-31T05:32:02.346Z,56
2022-10-31T05:34:33.527Z,55
2022-10-31T05:37:04.544Z,56
2022-10-31T05:39:35.036Z,52
2022-10-31T05:42:05.704Z,56
2022-10-31T05:44:36.937Z,52
2022-10-31T05:47:07.882Z,52
2022-10-31T05:49:38.153Z,56
2022-10-31T05:52:08.513Z,56
2022-10-31T05:54:39.169Z,49
2022-10-31T05:57:10.534Z,52
2022-10-31T05:59:39.883Z,53
2022-10-31T06:02:10.323Z,52
2022-10-31T06:04:41.001Z,58
2022-10-31T06:07:11.106Z,60
2022-10-31T06:09:41.908Z,56
2022-10-31T06:12:13.419Z,53
2022-10-31T06:14:44.056Z,53
2022-10-31T06:17:14.749Z,56
2022-10-31T06:19:45.507Z,56
2022-10-31T06:22:16.712Z,48
2022-10-31T06:24:47.446Z,48
2022-10-31T06:27:18.558Z,49
2022-10-31T06:29:49.006Z,52
2022-10-31T06:32:19.925Z,52
2022-10-31T06:34:50.048Z,52
2022-10-31T06:37:20.691Z,52
2022-10-31T06:39:51.286Z,52
2022-10-31T06:42:21.741Z,48
2022-10-31T06:44:51.927Z,50
2022-10-31T06:47:23.654Z,52
2022-10-31T06:49:54.251Z,49
2022-10-31T06:52:24.852Z,48
2022-10-31T06:54:55.441Z,57
2022-10-31T06:57:26.153Z,49
2022-10-31T06:59:58.310Z,52
2022-10-31T07:02:29.455Z,52
2022-10-31T07:05:00.245Z,52
2022-10-31T07:07:30.546Z,52
2022-10-31T07:10:01.487Z,52
2022-10-31T07:12:32.661Z,52
2022-10-31T07:15:03.239Z,50
2022-10-31T07:17:33.813Z,52
2022-10-31T07:20:02.540Z,54
2022-10-31T07:22:33.045Z,55
2022-10-31T07:25:03.552Z,56
2022-10-31T07:27:40.069Z,60
2022-10-31T07:30:10.390Z,56
2022-10-31T07:32:41.316Z,56
2022-10-31T07:35:11.742Z,56
2022-10-31T07:37:42.813Z,56
2022-10-31T07:40:13.702Z,58
2022-10-31T07:42:44.268Z,61
2022-10-31T07:45:15.431Z,55
2022-10-31T07:47:45.981Z,60
2022-10-31T07:50:20.318Z,56
2022-10-31T07:52:50.448Z,59
2022-10-31T07:55:21.011Z,56
2022-10-31T07:57:51.713Z,56
2022-10-31T08:00:23.411Z,56
2022-10-31T08:02:54.870Z,60
2022-10-31T08:05:24.973Z,57
2022-10-31T08:07:56.286Z,59
2022-10-31T08:10:26.542Z,60
2022-10-31T08:12:58.136Z,62
2022-10-31T08:15:28.864Z,68
2022-10-31T08:17:59.959Z,63
2022-10-31T08:20:30.575Z,59
2022-10-31T08:23:01.833Z,60
2022-10-31T08:25:33.937Z,58
2022-10-31T08:28:04.121Z,64
2022-10-31T08:30:35.405Z,61
2022-10-31T08:33:05.522Z,76
2022-10-31T08:35:36.151Z,68
2022-10-31T08:38:07.427Z,71
2022-10-31T08:40:37.703Z,68
2022-10-31T08:43:07.935Z,69
2022-10-31T08:45:38.267Z,70
2022-10-31T08:48:08.901Z,73
2022-10-31T08:50:39.032Z,68
2022-10-31T08:53:09.312Z,67
2022-10-31T08:55:40.255Z,72
2022-10-31T08:58:11.520Z,65
2022-10-31T09:00:43.167Z,71
2022-10-31T09:03:14.255Z,68
2022-10-31T09:05:45.199Z,71
2022-10-31T09:08:16.513Z,67
2022-10-31T09:10:45.749Z,68
2022-10-31T09:13:16.040Z,65
2022-10-31T09:15:46.871Z,68
2022-10-31T09:18:17.183Z,64
2022-10-31T09:20:47.855Z,73
2022-10-31T09:23:18.559Z,74
2022-10-31T09:25:50.573Z,70
2022-10-31T09:28:19.490Z,72
2022-10-31T09:30:50.377Z,71
2022-10-31T09:33:20.609Z,69
2022-10-31T09:35:50.973Z,69
2022-10-31T09:38:21.444Z,72
2022-10-31T09:40:52.075Z,71
2022-10-31T09:43:22.424Z,68
2022-10-31T09:45:53.046Z,69
2022-10-31T09:48:23.102Z,70
2022-10-31T09:50:53.451Z,68
2022-10-31T09:53:23.963Z,72
2022-10-31T09:55:54.329Z,72
2022-10-31T09:58:25.132Z,68
2022-10-31T10:00:56.570Z,71
2022-10-31T10:03:27.041Z,65
2022-10-31T10:05:57.215Z,72
2022-10-31T10:08:28.151Z,65
2022-10-31T10:10:59.222Z,68
2022-10-31T10:13:30.284Z,64
2022-10-31T10:16:00.561Z,66
2022-10-31T10:18:30.855Z,68
2022-10-31T10:21:01.724Z,68
2022-10-31T10:23:32.381Z,68
2022-10-31T10:26:05.110Z,67
2022-10-31T10:28:34.094Z,68
2022-10-31T10:31:05.278Z,72
2022-10-31T10:33:36.235Z,67
2022-10-31T10:36:06.987Z,68
2022-10-31T10:38:37.376Z,68
2022-10-31T10:41:07.924Z,68
2022-10-31T10:43:38.745Z,68
2022-10-31T10:46:10.904Z,64
2022-10-31T10:48:40.106Z,68
2022-10-31T10:51:20.333Z,68
2022-10-31T10:53:42.045Z,70
2022-10-31T10:56:13.038Z,68
2022-10-31T10:58:43.725Z,68
2022-10-31T11:03:44.929Z,71
2022-10-31T11:06:16.030Z,64
2022-10-31T11:08:46.301Z,68
2022-10-31T11:11:17.060Z,62
2022-10-31T11:13:47.450Z,65
2022-10-31T11:16:17.882Z,64
2022-10-31T11:18:48.862Z,67
2022-10-31T11:21:19.563Z,61
2022-10-31T11:23:49.722Z,61
2022-10-31T11:26:20.150Z,61
2022-10-31T11:28:50.616Z,64
2022-10-31T11:31:21.162Z,64
2022-10-31T11:33:52.315Z,60
2022-10-31T11:36:22.947Z,58
2022-10-31T11:38:53.272Z,64
2022-10-31T11:41:23.498Z,66
2022-10-31T11:43:53.799Z,68
2022-10-31T11:46:23.810Z,61
2022-10-31T11:48:55.062Z,62
2022-10-31T11:51:25.108Z,60
2022-10-31T11:53:56.681Z,59
2022-10-31T11:56:25.947Z,61
2022-10-31T11:58:56.315Z,61
2022-10-31T12:01:27.873Z,60
2022-10-31T12:03:58.310Z,60
2022-10-31T12:06:29.050Z,62
2022-10-31T12:08:59.173Z,60
2022-10-31T12:11:29.554Z,59
2022-10-31T12:14:03.977Z,63
2022-10-31T12:16:31.708Z,61
2022-10-31T12:19:02.644Z,67
2022-10-31T12:21:33.056Z,64
2022-10-31T12:24:04.202Z,67
2022-10-31T12:26:34.504Z,66
2022-10-31T12:29:05.130Z,68
2022-10-31T12:31:35.760Z,57
2022-10-31T12:34:05.648Z,56
2022-10-31T12:36:36.388Z,56
2022-10-31T12:39:07.530Z,53
2022-10-31T12:41:38.561Z,56
2022-10-31T12:44:09.497Z,52
2022-10-31T12:46:40.026Z,58
2022-10-31T12:49:10.159Z,54
2022-10-31T12:51:40.739Z,56
2022-10-31T12:54:12.033Z,52
2022-10-31T12:56:42.633Z,60
2022-10-31T12:59:13.395Z,61
2022-10-31T13:01:44.276Z,56
2022-10-31T13:04:15.001Z,56
2022-10-31T13:06:45.413Z,56
2022-10-31T13:09:16.044Z,56
2022-10-31T13:11:47.085Z,56
2022-10-31T13:14:17.761Z,56
2022-10-31T13:16:48.756Z,56
2022-10-31T13:19:19.484Z,60
2022-10-31T13:21:50.361Z,60
2022-10-31T13:24:20.530Z,64
2022-10-31T13:26:51.801Z,59
2022-10-31T13:29:22.621Z,65
2022-10-31T13:31:52.861Z,56
2022-10-31T13:34:23.783Z,61
2022-10-31T13:36:54.720Z,60
2022-10-31T13:39:24.869Z,58
2022-10-31T13:41:56.116Z,60
2022-10-31T13:44:26.829Z,61
2022-10-31T13:46:59.543Z,60
2022-10-31T13:49:29.994Z,56
2022-10-31T13:52:00.821Z,54
2022-10-31T13:54:31.544Z,56
2022-10-31T13:57:02.355Z,59
2022-10-31T13:59:33.905Z,55
2022-10-31T14:02:06.069Z,59
2022-10-31T14:04:37.084Z,55
2022-10-31T14:07:08.367Z,60
2022-10-31T14:09:39.683Z,55
2022-10-31T14:12:11.038Z,58
2022-10-31T14:14:41.484Z,56
2022-10-31T14:17:13.085Z,55
2022-10-31T14:19:45.028Z,56
2022-10-31T14:22:16.427Z,52
2022-10-31T14:24:47.708Z,59
2022-10-31T14:27:18.770Z,56
2022-10-31T14:29:50.683Z,56
2022-10-31T14:32:21.177Z,59
2022-10-31T14:34:52.034Z,55
2022-10-31T14:37:23.537Z,60
2022-10-31T14:39:54.925Z,60
2022-10-31T14:42:26.447Z,56
2022-10-31T14:44:57.973Z,57
2022-10-31T14:47:29.019Z,57
2022-10-31T14:50:00.584Z,56
2022-10-31T14:52:31.720Z,59
2022-10-31T14:55:02.919Z,56
2022-10-31T14:57:34.141Z,56
2022-10-31T15:00:05.782Z,57
2022-10-31T15:02:36.992Z,61
2022-10-31T15:05:07.911Z,56
2022-10-31T15:07:39.086Z,56
2022-10-31T15:10:10.354Z,59
2022-10-31T15:12:42.741Z,60
2022-10-31T15:15:14.536Z,56
2022-10-31T15:17:45.427Z,60
2022-10-31T15:20:16.866Z,60
2022-10-31T15:22:48.610Z,60
2022-10-31T15:25:19.469Z,58
2022-10-31T15:27:50.795Z,60
2022-10-31T15:30:22.918Z,63
2022-10-31T15:32:58.479Z,61
2022-10-31T15:35:25.743Z,63
2022-10-31T15:37:57.465Z,63
2022-10-31T15:40:28.663Z,60
2022-10-31T15:43:00.447Z,61
2022-10-31T15:45:31.400Z,60
2022-10-31T15:48:02.695Z,60
2022-10-31T15:50:33.203Z,65
2022-10-31T15:53:04.958Z,68
2022-10-31T15:55:35.767Z,64
2022-10-31T15:58:06.903Z,61
2022-10-31T16:00:37.748Z,60
2022-10-31T16:03:09.078Z,64
2022-10-31T16:05:40.022Z,67
2022-10-31T16:08:11.461Z,67
2022-10-31T16:10:43.456Z,60
2022-10-31T16:13:14.352Z,63
2022-10-31T16:15:46.591Z,69
2022-10-31T16:18:18.060Z,68
2022-10-31T16:20:48.853Z,64
2022-10-31T16:23:20.655Z,68
2022-10-31T16:25:51.525Z,71
2022-10-31T16:28:23.014Z,68
2022-10-31T16:30:53.491Z,70
2022-10-31T16:33:24.781Z,72
2022-10-31T16:35:59.698Z,69
2022-10-31T16:38:28.163Z,64
2022-10-31T16:41:00.327Z,62
2022-10-31T16:43:32.821Z,63
2022-10-31T16:46:04.564Z,64
2022-10-31T16:48:35.635Z,65
2022-10-31T16:51:07.256Z,59
2022-10-31T16:53:41.652Z,64
2022-10-31T16:56:09.623Z,63
2022-10-31T16:58:45.609Z,68
2022-10-31T17:01:18.028Z,64
2022-10-31T17:03:49.215Z,67
2022-10-31T17:06:20.443Z,73
2022-10-31T17:08:51.575Z,76
2022-10-31T17:11:22.421Z,75
2022-10-31T17:13:54.229Z,71
2022-10-31T17:16:25.352Z,71
2022-10-31T17:18:56.610Z,73
2022-10-31T17:21:28.246Z,76
2022-10-31T17:23:59.166Z,70
2022-10-31T17:26:30.454Z,75
2022-10-31T17:29:01.651Z,76
2022-10-31T17:31:33.141Z,75
2022-10-31T17:34:04.382Z,76
2022-10-31T17:36:35.714Z,82
2022-10-31T17:39:07.704Z,78
2022-10-31T17:41:38.565Z,81
2022-10-31T17:44:10.222Z,77
2022-10-31T17:46:41.273Z,79
2022-10-31T17:49:11.987Z,79
2022-10-31T17:51:43.276Z,72
2022-10-31T17:54:14.157Z,76
2022-10-31T17:56:45.297Z,72
2022-10-31T17:59:16.713Z,73
2022-10-31T18:01:47.894Z,72
2022-10-31T18:04:19.453Z,76
2022-10-31T18:06:50.611Z,76
2022-10-31T18:09:21.348Z,74
2022-10-31T18:11:52.314Z,73
2022-10-31T18:14:23.651Z,73
2022-10-31T18:16:58.249Z,74
2022-10-31T18:19:31.079Z,75
2022-10-31T18:22:03.064Z,72
2022-10-31T18:24:34.342Z,76
2022-10-31T18:27:05.460Z,72
2022-10-31T18:29:36.328Z,68
2022-10-31T18:32:09.408Z,68
2022-10-31T18:34:38.928Z,76
2022-10-31T18:37:09.966Z,76
2022-10-31T18:39:41.560Z,84
2022-10-31T18:42:12.995Z,85
2022-10-31T18:44:43.976Z,84
2022-10-31T18:47:13.903Z,84
2022-10-31T18:49:44.950Z,84
2022-10-31T18:52:15.973Z,84
2022-10-31T18:54:48.283Z,84
2022-10-31T18:57:19.585Z,84
2022-10-31T18:59:50.700Z,85
2022-10-31T19:02:22.120Z,83
2022-10-31T19:04:53.507Z,85
2022-10-31T19:07:28.367Z,80
2022-10-31T19:09:59.479Z,82
2022-10-31T19:12:30.990Z,83
2022-10-31T19:15:01.880Z,84
2022-10-31T19:17:32.805Z,80
2022-10-31T19:20:04.414Z,82
2022-10-31T19:22:33.820Z,81
2022-10-31T19:27:49.612Z,86
2022-10-31T19:30:20.510Z,79
2022-10-31T19:32:51.666Z,85
2022-10-31T19:35:22.593Z,85
2022-10-31T19:37:53.729Z,81
2022-10-31T19:40:24.612Z,86
2022-10-31T19:42:55.973Z,88
2022-10-31T19:45:26.817Z,86
2022-10-31T19:48:00.789Z,89
2022-10-31T19:50:31.619Z,88
2022-10-31T19:53:03.111Z,84
2022-10-31T19:55:33.910Z,91
2022-10-31T19:58:04.858Z,95
2022-10-31T20:00:38.567Z,92
2022-10-31T20:03:09.218Z,96
2022-10-31T20:05:39.942Z,95
2022-10-31T20:08:11.510Z,91
2022-10-31T20:10:42.893Z,86
2022-10-31T20:13:13.835Z,87
2022-10-31T20:15:44.666Z,84
2022-10-31T20:18:16.936Z,85
2022-10-31T20:20:48.307Z,89
2022-10-31T20:23:19.865Z,84
2022-10-31T20:25:51.582Z,85
2022-10-31T20:28:22.838Z,80
2022-10-31T20:30:53.908Z,81
2022-10-31T20:33:24.962Z,89
2022-10-31T20:35:56.211Z,87
2022-10-31T20:38:27.802Z,80
2022-10-31T20:40:58.810Z,80
2022-10-31T20:43:29.929Z,86
2022-10-31T20:46:01.070Z,84
2022-10-31T20:48:32.167Z,85
2022-10-31T20:51:03.414Z,84
2022-10-31T20:53:33.205Z,82
2022-10-31T20:56:05.885Z,87
2022-10-31T20:58:35.276Z,84
2022-10-31T21:01:06.029Z,85
2022-10-31T21:03:36.809Z,84
2022-10-31T21:06:07.768Z,88
2022-10-31T21:08:41.288Z,90
2022-10-31T21:11:13.937Z,92
2022-10-31T21:13:45.030Z,92
2022-10-31T21:16:16.175Z,84
2022-10-31T21:18:47.476Z,84
2022-10-31T21:21:19.520Z,81
2022-10-31T21:23:51.081Z,82
2022-10-31T21:26:22.297Z,86
2022-10-31T21:28:54.581Z,84
2022-10-31T21:31:26.415Z,81
2022-10-31T21:33:57.818Z,85
2022-10-31T21:36:29.309Z,84
2022-10-31T21:39:00.082Z,84
2022-10-31T21:41:31.220Z,84
2022-10-31T21:44:04.335Z,84
2022-10-31T21:46:36.485Z,86
2022-10-31T21:49:07.639Z,88
2022-10-31T21:51:39.600Z,82
2022-10-31T21:54:11.009Z,84
2022-10-31T21:56:43.082Z,81
2022-10-31T21:59:14.755Z,84
2022-10-31T22:01:46.390Z,86
2022-10-31T22:04:17.486Z,88
2022-10-31T22:06:48.381Z,88
2022-10-31T22:09:19.798Z,95
2022-10-31T22:11:51.185Z,93
2022-10-31T22:14:22.248Z,92
2022-10-31T22:16:53.655Z,89
2022-10-31T22:19:25.101Z,92
2022-10-31T22:21:56.244Z,92
2022-10-31T22:24:28.130Z,92
2022-10-31T22:26:59.097Z,88
2022-10-31T22:29:30.420Z,92
2022-10-31T22:32:02.065Z,84
2022-10-31T22:34:32.503Z,87
2022-10-31T22:37:04.615Z,84
2022-10-31T22:39:35.818Z,80
2022-10-31T22:42:07.025Z,76
2022-10-31T22:44:38.083Z,80
2022-10-31T22:47:08.960Z,80
2022-10-31T22:49:39.240Z,80
2022-10-31T22:52:11.445Z,80
2022-10-31T22:54:43.566Z,84
2022-10-31T22:57:15.066Z,85
2022-10-31T22:59:45.386Z,84
2022-10-31T23:02:16.527Z,80
2022-10-31T23:04:46.815Z,77
2022-10-31T23:07:19.022Z,80
2022-10-31T23:09:47.502Z,81
2022-10-31T23:12:18.742Z,80
2022-10-31T23:14:50.096Z,80
2022-10-31T23:17:21.184Z,80
2022-10-31T23:19:52.214Z,85
2022-10-31T23:22:23.099Z,80
2022-10-31T23:24:54.288Z,80
2022-10-31T23:27:25.041Z,79
2022-10-31T23:29:55.801Z,76
2022-10-31T23:32:26.803Z,71
2022-10-31T23:34:58.036Z,80
2022-10-31T23:37:28.663Z,76
2022-10-31T23:40:00.700Z,76
2022-10-31T23:42:31.726Z,80
2022-10-31T23:45:02.446Z,72
2022-10-31T23:47:33.383Z,72
2022-10-31T23:50:03.795Z,72
2022-10-31T23:52:34.648Z,73
2022-10-31T23:55:05.815Z,75
2022-10-31T23:57:36.973Z,75
